Аэропорт: Кемерово. Кемерово

ICAO: UNEE

METAR:
2021-10-23 00:30:00
UNEE 230030Z 17006MPS 9999 SCT046 00/M03 Q1023 R23/CLRD60 NOSIG RMK QFE744
METAR:
2021-10-22 23:00:00
TAF UNEE 222300Z 2300/2324 19006G15MPS 8000 BKN040CB BECMG 2302/2305 21010G23MPS BECMG 2306/2309 -SHRASN BKN020CB TEMPO 2309/2318 3000 -SHSNRA BKN010 BKN016CB BECMG 2318/2320 22005G10MPS